createdAt,value
2023-03-30T00:10:39.668Z,33.93
2023-03-30T00:13:34.716Z,33.90
2023-03-30T00:17:21.056Z,33.90
2023-03-30T00:19:39.440Z,33.93
2023-03-30T00:22:40.487Z,33.89
2023-03-30T00:25:28.782Z,33.89
2023-03-30T00:37:23.305Z,33.88
2023-03-30T00:40:39.063Z,33.89
2023-03-30T00:52:24.228Z,33.90
2023-03-30T00:55:30.578Z,33.87
2023-03-30T00:58:49.443Z,33.89
2023-03-30T01:01:45.115Z,33.90
2023-03-30T01:04:54.154Z,33.88
2023-03-30T01:07:45.258Z,33.89
2023-03-30T01:10:34.107Z,33.86
2023-03-30T01:13:39.614Z,33.85
2023-03-30T01:16:53.642Z,33.82
2023-03-30T01:20:12.125Z,33.84
2023-03-30T01:23:04.713Z,33.80
2023-03-30T01:26:10.811Z,33.83
2023-03-30T01:29:09.190Z,33.82
2023-03-30T01:32:10.744Z,33.79
2023-03-30T01:35:03.595Z,33.78
2023-03-30T01:38:10.951Z,33.75
2023-03-30T01:41:02.377Z,33.73
2023-03-30T01:44:29.767Z,33.72
2023-03-30T01:47:29.984Z,33.71
2023-03-30T01:50:02.979Z,33.71
2023-03-30T01:53:01.214Z,33.69
2023-03-30T01:55:51.895Z,33.66
2023-03-30T01:59:02.049Z,33.64
2023-03-30T02:05:00.292Z,33.59
2023-03-30T02:07:56.699Z,33.58
2023-03-30T02:11:06.436Z,33.61
2023-03-30T02:13:55.606Z,33.59
2023-03-30T02:16:55.246Z,33.57
2023-03-30T02:20:00.770Z,33.59
2023-03-30T02:23:18.207Z,33.58
2023-03-30T02:25:54.986Z,33.54
2023-03-30T02:28:37.897Z,33.56
2023-03-30T02:32:03.534Z,33.60
2023-03-30T02:35:04.710Z,33.58
2023-03-30T02:38:12.604Z,33.57
2023-03-30T02:41:31.799Z,33.59
2023-03-30T02:47:16.317Z,33.61
2023-03-30T02:50:08.784Z,33.60
2023-03-30T02:56:08.066Z,33.61
2023-03-30T02:58:50.027Z,33.67
2023-03-30T03:01:52.035Z,33.58
2023-03-30T03:08:29.257Z,33.54
2023-03-30T03:11:08.024Z,33.51
2023-03-30T03:13:42.904Z,33.51
2023-03-30T03:16:41.578Z,33.50
2023-03-30T03:22:54.318Z,33.51
2023-03-30T03:28:57.091Z,33.50
2023-03-30T03:32:39.118Z,33.50
2023-03-30T03:35:15.325Z,33.54
2023-03-30T03:38:08.609Z,33.52
2023-03-30T03:41:14.327Z,33.34
2023-03-30T03:47:23.278Z,33.53
2023-03-30T03:50:04.717Z,33.52
2023-03-30T03:53:37.130Z,33.53
2023-03-30T03:56:12.464Z,33.53
2023-03-30T03:59:13.958Z,33.50
2023-03-30T04:05:04.915Z,33.48
2023-03-30T04:08:06.089Z,33.47
2023-03-30T04:14:13.344Z,33.48
2023-03-30T04:17:08.816Z,33.39
2023-03-30T04:19:59.083Z,33.35
2023-03-30T04:26:19.687Z,33.39
2023-03-30T04:28:54.570Z,33.36
2023-03-30T04:32:13.168Z,33.32
2023-03-30T04:38:30.942Z,33.34
2023-03-30T04:41:06.365Z,33.29
2023-03-30T04:47:05.320Z,33.30
2023-03-30T04:50:01.671Z,33.28
2023-03-30T04:53:17.220Z,33.26
2023-03-30T05:05:05.248Z,33.26
2023-03-30T05:11:11.406Z,33.25
2023-03-30T05:20:15.728Z,33.29
2023-03-30T05:29:33.172Z,33.29
2023-03-30T05:38:21.423Z,33.27
2023-03-30T05:47:58.336Z,33.29
2023-03-30T05:50:28.514Z,33.29
2023-03-30T05:53:43.637Z,33.29
2023-03-30T05:59:25.569Z,33.30
2023-03-30T06:02:19.144Z,33.32
2023-03-30T06:05:33.552Z,33.31
2023-03-30T06:08:15.475Z,33.30
2023-03-30T06:23:05.488Z,33.33
2023-03-30T06:29:45.742Z,33.37
2023-03-30T06:32:26.811Z,33.37
2023-03-30T06:35:24.446Z,33.38
2023-03-30T06:38:24.685Z,33.41
2023-03-30T06:42:04.875Z,33.39
2023-03-30T06:45:05.273Z,33.41
2023-03-30T06:47:56.857Z,33.40
2023-03-30T06:50:54.283Z,33.42
2023-03-30T06:53:45.335Z,33.43
2023-03-30T06:56:33.422Z,33.43
2023-03-30T06:59:42.120Z,33.43
2023-03-30T07:03:03.847Z,33.46
2023-03-30T07:11:28.752Z,33.48
2023-03-30T07:14:51.595Z,33.48
2023-03-30T07:17:28.315Z,33.47
2023-03-30T07:23:58.612Z,33.48
2023-03-30T07:26:46.098Z,33.49
2023-03-30T07:29:30.576Z,33.50
2023-03-30T07:32:29.633Z,33.51
2023-03-30T07:38:46.512Z,33.53
2023-03-30T07:41:53.292Z,33.53
2023-03-30T07:44:56.014Z,33.54
2023-03-30T07:50:54.864Z,33.54
2023-03-30T07:53:27.863Z,33.56
2023-03-30T07:59:42.383Z,33.56
2023-03-30T08:03:01.078Z,33.56
2023-03-30T08:06:06.747Z,33.56
2023-03-30T08:09:18.450Z,33.57
2023-03-30T08:12:28.169Z,33.58
2023-03-30T08:15:55.388Z,33.58
2023-03-30T08:18:27.900Z,33.62
2023-03-30T08:21:29.137Z,33.61
2023-03-30T08:27:05.651Z,33.63
2023-03-30T08:30:09.674Z,33.63
2023-03-30T08:36:13.710Z,33.63
2023-03-30T08:38:53.706Z,33.62
2023-03-30T08:42:03.034Z,33.62
2023-03-30T08:44:46.855Z,33.64
2023-03-30T08:48:22.680Z,33.62
2023-03-30T08:51:28.657Z,33.64
2023-03-30T08:54:03.315Z,33.64
2023-03-30T09:00:20.264Z,33.67
2023-03-30T09:06:12.997Z,33.69
2023-03-30T09:09:02.964Z,33.69
2023-03-30T09:21:09.694Z,33.70
2023-03-30T09:23:58.235Z,33.72
2023-03-30T09:26:50.189Z,33.74
2023-03-30T09:36:23.255Z,33.76
2023-03-30T09:38:53.717Z,33.75
2023-03-30T09:41:52.334Z,33.78
2023-03-30T09:45:27.070Z,33.79
2023-03-30T09:48:08.156Z,33.79
2023-03-30T09:50:46.133Z,33.80
2023-03-30T09:57:08.105Z,33.84
2023-03-30T10:09:24.110Z,33.85
2023-03-30T10:15:11.624Z,33.84
2023-03-30T10:17:56.422Z,33.87
2023-03-30T10:24:11.138Z,33.89
2023-03-30T10:26:49.099Z,33.90
2023-03-30T10:33:32.828Z,33.93
2023-03-30T10:36:28.618Z,33.93
2023-03-30T10:45:45.004Z,33.97
2023-03-30T10:48:42.118Z,33.98
2023-03-30T10:51:48.382Z,34.01
2023-03-30T10:54:36.731Z,34.00
2023-03-30T10:57:30.155Z,34.00
2023-03-30T11:03:57.895Z,34.02
2023-03-30T11:06:52.113Z,34.03
2023-03-30T11:09:30.537Z,34.03
2023-03-30T11:12:33.720Z,34.03
2023-03-30T11:15:36.232Z,34.05
2023-03-30T11:18:58.830Z,34.06
2023-03-30T11:22:10.449Z,34.07
2023-03-30T11:24:40.778Z,34.11
2023-03-30T11:27:26.493Z,34.10
2023-03-30T11:31:22.017Z,34.12
2023-03-30T11:33:45.605Z,34.13
2023-03-30T11:39:41.553Z,34.20
2023-03-30T11:45:38.920Z,34.19
2023-03-30T11:48:34.375Z,34.21
2023-03-30T11:51:42.231Z,34.20
2023-03-30T11:55:02.356Z,34.11
2023-03-30T11:57:49.620Z,34.11
2023-03-30T12:03:55.210Z,34.25
2023-03-30T12:10:03.867Z,34.03
2023-03-30T12:12:36.517Z,34.17
2023-03-30T12:15:12.862Z,34.28
2023-03-30T12:18:21.126Z,34.35
2023-03-30T12:21:09.099Z,34.42
2023-03-30T12:30:16.332Z,34.88
2023-03-30T12:33:47.821Z,34.94
2023-03-30T12:36:40.396Z,34.96
2023-03-30T12:42:44.368Z,34.94
2023-03-30T12:46:16.278Z,34.96
2023-03-30T12:48:54.340Z,34.98
2023-03-30T12:51:53.075Z,35.02
2023-03-30T12:58:12.278Z,34.91
2023-03-30T13:00:48.713Z,34.99
2023-03-30T13:03:45.963Z,35.01
2023-03-30T13:06:42.294Z,35.07
2023-03-30T13:09:34.221Z,35.07
2023-03-30T13:12:26.991Z,35.10
2023-03-30T13:16:03.519Z,35.07
2023-03-30T13:18:56.691Z,35.07
2023-03-30T13:21:57.988Z,35.01
2023-03-30T13:25:05.227Z,34.98
2023-03-30T13:28:03.207Z,34.93
2023-03-30T13:30:36.221Z,34.90
2023-03-30T13:33:28.533Z,34.94
2023-03-30T13:36:45.867Z,35.10
2023-03-30T13:39:47.873Z,35.06
2023-03-30T13:46:32.262Z,34.97
2023-03-30T13:49:30.312Z,34.91
2023-03-30T13:52:14.289Z,34.99
2023-03-30T13:55:05.444Z,34.92
2023-03-30T13:58:18.084Z,34.95
2023-03-30T14:00:53.573Z,34.90
2023-03-30T14:03:48.006Z,34.80
2023-03-30T14:06:27.615Z,34.93
2023-03-30T14:09:15.836Z,34.98
2023-03-30T14:18:52.806Z,34.91
2023-03-30T14:25:04.517Z,34.90
2023-03-30T14:31:40.693Z,34.72
2023-03-30T14:37:52.333Z,34.85
2023-03-30T14:40:22.926Z,34.86
2023-03-30T14:42:57.635Z,34.87
2023-03-30T14:51:31.330Z,34.86
2023-03-30T14:54:01.212Z,34.86
2023-03-30T14:56:31.279Z,34.87
2023-03-30T15:02:02.049Z,34.79
2023-03-30T15:04:48.349Z,34.84
2023-03-30T15:07:58.844Z,34.88
2023-03-30T15:11:00.799Z,34.83
2023-03-30T15:17:00.153Z,34.83
2023-03-30T15:19:56.574Z,34.84
2023-03-30T15:23:04.504Z,34.83
2023-03-30T15:25:40.335Z,34.87
2023-03-30T15:35:12.309Z,34.82
2023-03-30T15:38:18.812Z,34.84
2023-03-30T15:43:54.059Z,34.96
2023-03-30T15:46:48.526Z,34.95
2023-03-30T15:49:54.243Z,34.96
2023-03-30T15:55:45.304Z,35.00
2023-03-30T16:04:39.022Z,35.08
2023-03-30T16:14:10.784Z,35.08
2023-03-30T16:20:19.654Z,35.15
2023-03-30T16:22:50.332Z,35.16
2023-03-30T16:25:31.250Z,35.18
2023-03-30T16:28:29.955Z,35.18
2023-03-30T16:30:31.030Z,35.16
2023-03-30T16:33:01.339Z,35.15
2023-03-30T16:35:31.829Z,35.15
2023-03-30T16:38:10.398Z,35.17
2023-03-30T16:40:48.446Z,35.21
2023-03-30T16:43:49.362Z,35.25
2023-03-30T16:47:11.143Z,35.26
2023-03-30T16:53:19.483Z,35.28
2023-03-30T16:55:45.515Z,35.32
2023-03-30T16:58:34.461Z,35.34
2023-03-30T17:03:51.736Z,35.52
2023-03-30T17:06:42.401Z,35.52
2023-03-30T17:09:14.670Z,35.52
2023-03-30T17:12:02.203Z,35.50
2023-03-30T17:14:32.515Z,35.50
2023-03-30T17:20:11.083Z,35.47
2023-03-30T17:23:12.264Z,35.49
2023-03-30T17:26:11.131Z,35.50
2023-03-30T17:29:08.548Z,35.47
2023-03-30T17:32:09.672Z,35.47
2023-03-30T17:35:07.702Z,35.50
2023-03-30T17:38:22.102Z,35.51
2023-03-30T17:40:53.539Z,35.51
2023-03-30T17:43:59.957Z,35.50
2023-03-30T17:46:48.029Z,35.54
2023-03-30T17:53:20.222Z,35.56
2023-03-30T17:56:20.602Z,35.56
2023-03-30T17:58:57.869Z,35.57
2023-03-30T18:02:08.932Z,35.58
2023-03-30T18:08:36.930Z,35.60
2023-03-30T18:11:49.435Z,35.57
2023-03-30T18:20:37.844Z,35.66
2023-03-30T18:26:14.855Z,35.66
2023-03-30T18:32:10.974Z,35.65
2023-03-30T18:41:44.357Z,35.69
2023-03-30T18:59:28.562Z,35.88
2023-03-30T19:02:42.050Z,35.94
2023-03-30T19:08:45.027Z,35.94
2023-03-30T19:11:32.711Z,35.98
2023-03-30T19:15:01.351Z,36.00
2023-03-30T19:17:53.855Z,36.02
2023-03-30T19:20:31.589Z,36.04
2023-03-30T19:23:32.231Z,36.10
2023-03-30T19:26:09.445Z,36.13
2023-03-30T19:29:51.717Z,36.09
2023-03-30T19:32:48.983Z,36.08
2023-03-30T19:35:32.055Z,36.11
2023-03-30T19:38:30.289Z,36.10
2023-03-30T19:41:44.290Z,36.12
2023-03-30T19:51:04.898Z,36.16
2023-03-30T19:53:52.942Z,36.15
2023-03-30T19:57:01.981Z,36.18
2023-03-30T19:59:32.657Z,36.20
2023-03-30T20:03:06.788Z,36.19
2023-03-30T20:05:37.472Z,36.23
2023-03-30T20:11:32.400Z,36.33
2023-03-30T20:17:35.550Z,36.28
2023-03-30T20:23:38.627Z,36.29
2023-03-30T20:26:32.503Z,36.28
2023-03-30T20:29:24.048Z,36.28
2023-03-30T20:32:22.216Z,36.30
2023-03-30T20:35:44.087Z,36.28
2023-03-30T20:39:06.713Z,36.30
2023-03-30T20:41:52.723Z,36.34
2023-03-30T20:48:05.161Z,36.35
2023-03-30T20:50:55.966Z,36.36
2023-03-30T20:57:05.089Z,36.37
2023-03-30T20:59:50.513Z,36.37
2023-03-30T21:02:42.475Z,36.38
2023-03-30T21:05:21.365Z,36.43
2023-03-30T21:20:58.375Z,36.52
2023-03-30T21:23:44.473Z,36.54
2023-03-30T21:35:39.357Z,36.65
2023-03-30T21:44:59.994Z,36.66
2023-03-30T21:48:15.455Z,36.68
2023-03-30T21:51:01.791Z,36.75
2023-03-30T21:56:54.166Z,36.75
2023-03-30T22:08:47.437Z,36.83
2023-03-30T22:20:49.378Z,36.93
2023-03-30T22:36:31.218Z,36.99
2023-03-30T22:39:21.182Z,37.06
2023-03-30T22:42:03.919Z,37.03
2023-03-30T22:47:42.154Z,36.97
2023-03-30T22:50:42.670Z,36.98
2023-03-30T23:03:47.268Z,37.09
2023-03-30T23:09:18.796Z,37.16
2023-03-30T23:12:19.911Z,37.14
2023-03-30T23:15:13.591Z,37.20
2023-03-30T23:25:04.568Z,37.09
2023-03-30T23:30:49.161Z,37.23
2023-03-30T23:45:15.431Z,37.12
2023-03-30T23:51:35.550Z,37.14
2023-03-30T23:54:25.189Z,37.21
2023-03-30T23:58:20.192Z,37.09
